Time;durP1;ratioP1;P1;durP2;ratioP2;P2;SDS_P1;SDS_P2;PMS_P1;PMS_P2;Temp;Humidity;BMP_temperature;BMP_pressure;BME280_temperature;BME280_humidity;BME280_pressure;Samples;Min_cycle;Max_cycle;Signal;HPM_P1;HPM_P2
2022/04/27 00:01:31;;;;;;;1.15;0.65;;;;;;;8.64;63.97;102529.22;4993342;28;99224;-35
2022/04/27 00:03:56;;;;;;;1.27;1.00;;;;;;;8.61;63.81;102532.03;4993373;28;96638;-35
2022/04/27 00:06:21;;;;;;;2.88;1.40;;;;;;;8.53;63.19;102517.81;4992644;28;121515;-35
2022/04/27 00:08:47;;;;;;;1.73;1.17;;;;;;;8.54;64.45;102522.31;4992441;28;110091;-35
2022/04/27 00:11:12;;;;;;;1.77;1.00;;;;;;;8.44;64.50;102513.56;4992723;28;98664;-35
2022/04/27 00:13:38;;;;;;;1.13;0.75;;;;;;;8.54;64.08;102522.31;4992777;28;96707;-35
2022/04/27 00:16:03;;;;;;;0.77;0.65;;;;;;;8.40;64.47;102510.03;4993549;28;96750;-35
2022/04/27 00:18:28;;;;;;;3.20;1.50;;;;;;;8.43;64.24;102514.47;4993087;28;99277;-35
2022/04/27 00:20:54;;;;;;;3.42;0.70;;;;;;;8.41;64.96;102514.50;4992244;28;120528;-35
2022/04/27 00:23:20;;;;;;;4.13;1.20;;;;;;;8.44;65.53;102522.53;4993089;28;96527;-35
2022/04/27 00:25:46;;;;;;;1.08;0.82;;;;;;;8.41;64.17;102530.69;4991671;28;96617;-35
2022/04/27 00:28:11;;;;;;;1.48;0.82;;;;;;;8.32;64.70;102517.44;4993064;28;97931;-35
2022/04/27 00:30:36;;;;;;;1.70;0.88;;;;;;;8.30;65.35;102520.16;4992240;28;126098;-35
2022/04/27 00:33:02;;;;;;;0.65;0.65;;;;;;;8.21;65.26;102514.97;4992312;28;118820;-35
2022/04/27 00:35:30;;;;;;;0.82;0.70;;;;;;;8.14;64.99;102512.47;4992971;28;96795;-35
2022/04/27 00:37:55;;;;;;;1.33;0.98;;;;;;;8.16;64.94;102524.13;4991395;28;125042;-35
2022/04/27 00:40:20;;;;;;;1.05;0.88;;;;;;;8.15;64.87;102525.03;4992168;28;126638;-35
2022/04/27 00:42:46;;;;;;;1.38;0.80;;;;;;;8.11;65.75;102526.94;4992811;28;96786;-35
2022/04/27 00:45:11;;;;;;;0.75;0.65;;;;;;;8.11;66.02;102521.53;4991664;28;123760;-35
2022/04/27 00:47:36;;;;;;;0.88;0.73;;;;;;;8.08;65.23;102522.50;4991671;28;125558;-35
2022/04/27 00:50:04;;;;;;;2.33;1.00;;;;;;;8.07;65.99;102517.13;4991835;28;126458;-35
2022/04/27 00:52:32;;;;;;;2.40;1.10;;;;;;;8.12;65.65;102522.41;4991137;28;96675;-35
2022/04/27 00:54:58;;;;;;;0.82;0.77;;;;;;;8.08;65.99;102519.81;4991661;28;96773;-35
2022/04/27 00:57:24;;;;;;;1.10;0.90;;;;;;;8.09;65.87;102526.09;4992558;28;97997;-35
2022/04/27 00:59:50;;;;;;;2.40;1.10;;;;;;;8.11;65.79;102524.22;4991167;28;100984;-35
2022/04/27 01:02:16;;;;;;;4.05;1.10;;;;;;;8.12;65.47;102535.91;4992563;28;96479;-35
2022/04/27 01:04:42;;;;;;;2.47;1.42;;;;;;;8.02;65.51;102522.63;4992449;28;96910;-35
2022/04/27 01:07:08;;;;;;;2.75;1.15;;;;;;;8.04;66.00;102528.88;4990457;28;100935;-35
2022/04/27 01:09:34;;;;;;;3.17;1.60;;;;;;;8.00;65.39;102523.59;4990782;28;101217;-35
2022/04/27 01:12:01;;;;;;;3.83;1.05;;;;;;;8.03;66.17;102531.63;4990595;28;96745;-35
2022/04/27 01:14:26;;;;;;;1.58;1.13;;;;;;;7.97;65.64;102521.88;4992278;28;96788;-35
2022/04/27 01:16:53;;;;;;;4.20;1.15;;;;;;;7.96;66.03;102522.81;4990805;28;101031;-35
2022/04/27 01:19:21;;;;;;;1.77;1.20;;;;;;;7.95;66.51;102530.91;4991210;28;100565;-35
2022/04/27 01:21:48;;;;;;;1.65;0.77;;;;;;;7.92;66.67;102534.56;4990967;28;96603;-35
2022/04/27 01:24:17;;;;;;;1.67;1.10;;;;;;;7.86;67.23;102542.81;4991099;28;96796;-35
2022/04/27 01:26:42;;;;;;;1.17;0.77;;;;;;;7.77;66.96;102530.44;4990268;28;101123;-35
2022/04/27 01:29:07;;;;;;;1.85;1.25;;;;;;;7.77;67.05;102534.91;4991108;28;126685;-35
2022/04/27 01:31:33;;;;;;;3.20;1.13;;;;;;;7.72;67.30;102534.13;4992162;28;96459;-35
2022/04/27 01:33:58;;;;;;;5.10;1.15;;;;;;;7.72;66.81;102531.44;4991913;28;104207;-35
2022/04/27 01:36:23;;;;;;;2.42;1.17;;;;;;;7.73;67.34;102541.31;4991675;28;104684;-35
2022/04/27 01:38:49;;;;;;;2.13;1.05;;;;;;;7.70;67.01;102541.38;4991563;28;110790;-35
2022/04/27 01:41:15;;;;;;;1.08;0.88;;;;;;;7.59;67.91;102531.72;4991929;28;96613;-35
2022/04/27 01:43:40;;;;;;;1.45;0.90;;;;;;;7.55;67.94;102534.50;4992537;28;96857;-35
2022/04/27 01:46:06;;;;;;;1.35;1.10;;;;;;;7.53;67.22;102534.56;4991942;28;97450;-35
2022/04/27 01:48:32;;;;;;;1.35;0.70;;;;;;;7.45;66.73;102526.63;4993289;28;99213;-35
2022/04/27 01:50:57;;;;;;;1.75;1.10;;;;;;;7.49;67.30;102534.66;4993578;28;97116;-35
2022/04/27 01:56:06;;;;;;;1.75;1.25;;;;;;;7.36;67.49;102540.28;4995879;28;97187;-35
2022/04/27 01:58:32;;;;;;;1.20;0.85;;;;;;;7.30;67.57;102532.34;4995163;28;103111;-35
2022/04/27 02:00:57;;;;;;;7.13;1.42;;;;;;;7.39;68.15;102551.03;4995621;28;96415;-35
2022/04/27 02:03:24;;;;;;;2.88;1.35;;;;;;;7.34;67.85;102543.94;4995289;28;97715;-35
2022/04/27 02:05:50;;;;;;;3.10;1.50;;;;;;;7.29;67.86;102540.44;4993428;28;101403;-35
2022/04/27 02:08:16;;;;;;;2.42;1.17;;;;;;;7.34;68.25;102561.03;4995168;28;98816;-35
2022/04/27 02:10:42;;;;;;;5.05;1.38;;;;;;;7.27;68.34;102559.38;4993089;28;96642;-35
2022/04/27 02:13:09;;;;;;;2.42;1.38;;;;;;;7.19;68.56;102561.31;4993875;28;96720;-35
2022/04/27 02:15:35;;;;;;;1.52;1.10;;;;;;;7.18;68.18;102560.44;4994697;28;98001;-35
2022/04/27 02:18:01;;;;;;;2.17;1.30;;;;;;;7.15;68.50;102563.19;4993562;28;100724;-35
2022/04/27 02:20:27;;;;;;;2.33;1.30;;;;;;;7.12;69.06;102560.53;4993646;28;96583;-35
2022/04/27 02:22:53;;;;;;;2.17;1.05;;;;;;;7.11;68.06;102572.25;4993822;28;96732;-35
2022/04/27 02:25:19;;;;;;;1.95;1.15;;;;;;;6.99;68.56;102565.28;4993470;28;100848;-35
2022/04/27 02:27:45;;;;;;;2.00;1.20;;;;;;;7.01;68.03;102579.63;4993552;28;100629;-35
2022/04/27 02:30:12;;;;;;;1.63;1.08;;;;;;;6.96;68.18;102569.81;4995024;28;96570;-35
2022/04/27 02:32:39;;;;;;;2.90;1.50;;;;;;;6.96;69.16;102573.44;4993877;28;96857;-35
2022/04/27 02:35:06;;;;;;;1.73;1.25;;;;;;;6.87;69.18;102564.63;4993354;28;100861;-35
2022/04/27 02:37:31;;;;;;;1.77;1.05;;;;;;;6.93;69.09;102577.97;4976626;28;101254;-35
2022/04/27 02:40:00;;;;;;;2.03;1.48;;;;;;;6.87;69.03;102564.63;4994438;28;96551;-35
2022/04/27 02:42:26;;;;;;;1.48;1.20;;;;;;;6.84;69.43;102570.97;4993255;28;97139;-35
2022/04/27 02:44:52;;;;;;;2.22;1.10;;;;;;;6.76;69.38;102563.00;4993188;28;100940;-35
2022/04/27 02:47:18;;;;;;;1.08;0.95;;;;;;;6.74;69.68;102563.94;4993157;28;100856;-35
2022/04/27 02:52:28;;;;;;;1.85;1.33;;;;;;;6.60;68.69;102561.50;4994703;28;96571;-35
2022/04/27 02:54:53;;;;;;;2.90;2.13;;;;;;;6.66;70.09;102574.88;4994633;28;97859;-35
2022/04/27 02:57:18;;;;;;;2.42;1.58;;;;;;;6.64;69.92;102570.44;4994998;28;97309;-35
2022/04/27 02:59:44;;;;;;;3.28;1.77;;;;;;;6.58;68.91;102564.25;4992693;28;111448;-35
2022/04/27 03:02:09;;;;;;;2.53;1.60;;;;;;;6.55;69.72;102567.00;4994608;28;96746;-34
2022/04/27 03:04:35;;;;;;;3.65;1.92;;;;;;;6.52;69.04;102569.72;4993906;28;97929;-35
2022/04/27 03:07:00;;;;;;;2.03;1.48;;;;;;;6.55;69.61;102582.22;4994076;28;97623;-35
2022/04/27 03:09:26;;;;;;;2.28;1.42;;;;;;;6.49;70.30;102574.28;4994144;28;96692;-35
2022/04/27 03:11:52;;;;;;;2.72;1.83;;;;;;;6.48;70.42;102584.13;4993548;28;96683;-35
2022/04/27 03:14:18;;;;;;;3.22;1.77;;;;;;;6.39;69.74;102584.31;4994095;28;97960;-35
2022/04/27 03:16:44;;;;;;;2.60;1.50;;;;;;;6.38;70.15;102580.69;4994398;28;97243;-35
2022/04/27 03:19:10;;;;;;;4.45;1.83;;;;;;;6.31;70.28;102581.72;4992907;28;96574;-35
2022/04/27 03:21:35;;;;;;;2.05;1.30;;;;;;;6.30;70.90;102573.69;4994611;28;96746;-35
2022/04/27 03:24:00;;;;;;;3.03;1.60;;;;;;;6.30;69.89;102577.25;4993920;28;99346;-35
2022/04/27 03:26:26;;;;;;;2.35;0.93;;;;;;;6.32;69.67;102578.13;4994076;28;97762;-35
2022/04/27 03:28:51;;;;;;;3.72;1.75;;;;;;;6.34;69.79;102589.75;4993462;28;96543;-35
2022/04/27 03:31:17;;;;;;;1.75;1.45;;;;;;;6.21;69.64;102572.03;4993059;28;122219;-35
2022/04/27 03:33:42;;;;;;;4.40;2.42;;;;;;;6.27;70.03;102580.00;4993654;28;99247;-35
2022/04/27 03:36:11;;;;;;;2.65;1.67;;;;;;;6.21;69.96;102580.09;4993783;28;103570;-35
2022/04/27 03:38:38;;;;;;;3.65;2.10;;;;;;;6.23;69.76;102596.22;4992581;28;96575;-35
2022/04/27 03:41:04;;;;;;;1.90;1.48;;;;;;;6.21;70.74;102582.78;4992520;28;96580;-35
2022/04/27 03:43:29;;;;;;;2.47;1.55;;;;;;;6.17;69.93;102575.66;4993566;28;97908;-35
2022/04/27 03:45:55;;;;;;;2.67;1.52;;;;;;;6.18;70.16;102580.16;4993811;28;99182;-35
2022/04/27 03:48:20;;;;;;;5.18;2.35;;;;;;;6.16;70.68;102584.66;4993914;28;96647;-35
2022/04/27 03:50:45;;;;;;;4.20;1.75;;;;;;;6.10;69.92;102571.28;4992737;28;113353;-35
2022/04/27 03:53:10;;;;;;;3.33;1.85;;;;;;;6.12;70.47;102591.00;4992544;28;117290;-35
2022/04/27 03:55:36;;;;;;;4.30;2.25;;;;;;;6.02;70.30;102579.47;4993256;28;99176;-35
2022/04/27 03:58:03;;;;;;;3.00;1.88;;;;;;;6.04;70.15;102585.72;4992181;28;96659;-35
2022/04/27 04:00:28;;;;;;;2.97;2.15;;;;;;;5.99;70.23;102579.53;4993378;28;96617;-35
2022/04/27 04:02:54;;;;;;;2.90;1.90;;;;;;;5.94;70.71;102573.34;4993581;28;97804;-35
2022/04/27 04:05:20;;;;;;;2.25;1.27;;;;;;;6.01;70.22;102593.84;4993181;28;99117;-35
2022/04/27 04:07:45;;;;;;;2.63;1.88;;;;;;;5.95;70.64;102589.44;4993310;28;96894;-35
2022/04/27 04:10:11;;;;;;;2.78;1.80;;;;;;;5.92;70.43;102586.75;4993993;28;96771;-35
2022/04/27 04:12:37;;;;;;;4.78;2.10;;;;;;;5.87;70.75;102574.28;4991425;28;101216;-34
2022/04/27 04:15:02;;;;;;;5.35;2.10;;;;;;;5.89;70.18;102589.50;4993433;28;97888;-35
2022/04/27 04:17:28;;;;;;;2.13;1.70;;;;;;;5.94;70.84;102593.03;4991288;28;98630;-35
2022/04/27 04:19:53;;;;;;;3.55;2.13;;;;;;;5.83;71.23;102588.69;4991034;28;120513;-34
2022/04/27 04:22:19;;;;;;;4.60;1.90;;;;;;;5.82;70.54;102585.13;4991663;28;100950;-35
2022/04/27 04:30:12;;;;;;;3.75;2.30;;;;;;;5.79;70.88;102595.00;4993326;28;96530;-35
2022/04/27 04:32:38;;;;;;;1.95;1.38;;;;;;;5.81;70.43;102607.53;4992706;28;99138;-35
2022/04/27 04:35:04;;;;;;;3.28;2.28;;;;;;;5.78;71.31;102604.88;4993040;28;99150;-35
2022/04/27 04:37:29;;;;;;;9.65;2.42;;;;;;;5.79;70.60;102603.97;4991483;28;96728;-35
2022/04/27 04:39:54;;;;;;;5.03;2.53;;;;;;;5.77;71.33;102610.25;4990714;28;121876;-35
2022/04/27 04:42:19;;;;;;;2.63;1.77;;;;;;;5.76;70.36;102606.69;4991312;28;127036;-35
2022/04/27 04:44:45;;;;;;;4.15;2.28;;;;;;;5.80;71.54;102626.38;4990947;28;110560;-35
2022/04/27 04:47:10;;;;;;;2.85;1.67;;;;;;;5.81;71.37;102630.84;4990497;28;120954;-35
2022/04/27 04:49:35;;;;;;;4.15;2.17;;;;;;;5.72;70.74;102615.69;4992616;28;96843;-35
2022/04/27 04:52:00;;;;;;;3.38;1.50;;;;;;;5.75;71.40;102629.13;4991493;28;126675;-35
2022/04/27 04:54:26;;;;;;;11.15;2.47;;;;;;;5.78;70.88;102633.56;4991941;28;116776;-35
2022/04/27 04:56:51;;;;;;;2.47;1.77;;;;;;;5.80;70.73;102634.44;4991918;28;118145;-35
2022/04/27 04:59:16;;;;;;;5.50;2.38;;;;;;;5.77;70.39;102630.00;4992982;28;96870;-35
2022/04/27 05:01:41;;;;;;;4.10;1.83;;;;;;;5.81;70.38;102638.91;4992496;28;97282;-35
2022/04/27 05:04:07;;;;;;;3.55;1.45;;;;;;;5.82;70.78;102646.97;4991523;28;126342;-35
2022/04/27 05:06:32;;;;;;;4.10;1.80;;;;;;;5.82;71.17;102644.28;4990745;28;121716;-35
2022/04/27 05:08:57;;;;;;;3.65;2.13;;;;;;;5.81;70.52;102639.78;4992543;28;96652;-35
2022/04/27 05:11:23;;;;;;;4.75;2.17;;;;;;;5.81;70.56;102638.91;4990303;28;101327;-35
2022/04/27 05:13:48;;;;;;;4.40;2.55;;;;;;;5.92;70.57;102662.06;4992118;28;99109;-35
2022/04/27 05:16:14;;;;;;;3.58;2.10;;;;;;;5.96;69.96;102662.97;4992324;28;96536;-35
2022/04/27 05:18:39;;;;;;;4.18;2.22;;;;;;;6.01;70.42;102665.59;4992612;28;96849;-35
2022/04/27 05:21:04;;;;;;;2.95;1.65;;;;;;;5.98;70.13;102663.81;4991387;28;125515;-35
2022/04/27 05:23:29;;;;;;;3.40;2.08;;;;;;;6.06;71.29;102664.59;4991593;28;97796;-35
2022/04/27 05:25:55;;;;;;;2.88;1.85;;;;;;;6.05;70.33;102657.44;4991070;28;123153;-35
2022/04/27 05:28:22;;;;;;;4.20;2.60;;;;;;;6.12;70.58;102660.94;4992070;28;96798;-35
2022/04/27 05:33:31;;;;;;;2.85;2.10;;;;;;;6.25;69.27;102662.56;4992117;28;96959;-35
2022/04/27 05:35:56;;;;;;;5.20;2.63;;;;;;;6.30;69.30;102659.81;4992087;28;96464;-35
2022/04/27 05:38:22;;;;;;;6.80;2.65;;;;;;;6.43;69.35;102668.56;4992318;28;96985;-35
2022/04/27 05:40:47;;;;;;;5.45;2.40;;;;;;;6.51;68.27;102669.38;4991869;28;99292;-35
2022/04/27 05:43:13;;;;;;;4.85;2.55;;;;;;;6.64;68.69;102681.69;4991858;28;99278;-35
2022/04/27 05:45:38;;;;;;;3.50;2.00;;;;;;;6.67;67.66;102673.56;4991892;28;96507;-35
2022/04/27 05:48:04;;;;;;;3.58;2.42;;;;;;;6.77;67.96;102680.59;4992398;28;97441;-35
2022/04/27 05:50:29;;;;;;;4.15;1.90;;;;;;;6.95;67.52;102689.28;4991766;28;97881;-35
2022/04/27 05:52:56;;;;;;;4.82;2.78;;;;;;;7.06;67.16;102689.13;4991049;28;124606;-35
2022/04/27 05:55:25;;;;;;;4.60;2.38;;;;;;;7.19;68.18;102678.06;4990020;28;97049;-35
2022/04/27 05:57:50;;;;;;;3.30;1.80;;;;;;;7.35;67.46;102691.28;4990440;28;96752;-35
2022/04/27 06:00:17;;;;;;;3.38;1.80;;;;;;;7.51;68.96;102695.50;4991594;28;99047;-34
2022/04/27 06:02:43;;;;;;;4.78;2.05;;;;;;;7.63;66.70;102695.25;4990338;28;99584;-35
2022/04/27 06:05:09;;;;;;;3.45;2.10;;;;;;;7.83;67.41;102696.66;4990361;28;96515;-35
2022/04/27 06:07:35;;;;;;;3.50;2.03;;;;;;;7.98;67.69;102693.63;4989797;28;96785;-35
2022/04/27 06:10:05;;;;;;;4.22;2.20;;;;;;;8.16;66.33;102695.06;4990273;28;100872;-35
2022/04/27 06:12:35;;;;;;;7.03;3.13;;;;;;;8.23;67.37;102688.59;4991428;28;99860;-34
2022/04/27 06:15:04;;;;;;;4.15;1.88;;;;;;;8.45;66.97;102697.13;4991610;28;96596;-35
2022/04/27 06:17:31;;;;;;;4.63;2.10;;;;;;;8.54;66.98;102701.44;4990096;28;96776;-34
2022/04/27 06:19:56;;;;;;;2.70;1.83;;;;;;;8.53;66.15;102694.25;4991112;28;97969;-35
2022/04/27 06:22:22;;;;;;;2.55;1.70;;;;;;;8.57;65.90;102690.56;4991418;28;99423;-35
2022/04/27 06:24:47;;;;;;;5.22;2.45;;;;;;;8.71;66.33;102707.31;4991553;28;96654;-35
2022/04/27 06:27:12;;;;;;;5.00;2.08;;;;;;;8.77;65.68;102703.59;4990440;28;96805;-35
2022/04/27 06:29:38;;;;;;;3.83;2.10;;;;;;;8.80;65.47;102705.34;4970821;28;126150;-35
2022/04/27 06:32:03;;;;;;;3.30;1.95;;;;;;;8.85;66.23;102704.31;4969782;28;116022;-35
2022/04/27 06:34:29;;;;;;;3.42;1.80;;;;;;;8.79;65.94;102690.91;4971845;28;96720;-35
2022/04/27 06:36:54;;;;;;;4.28;2.17;;;;;;;8.89;65.61;102695.19;4975324;28;96803;-35
2022/04/27 06:39:20;;;;;;;2.67;1.52;;;;;;;8.98;65.46;102709.41;4974982;28;97924;-35
2022/04/27 06:41:45;;;;;;;3.28;1.70;;;;;;;9.11;65.50;102703.66;4974203;28;121907;-35
2022/04/27 06:44:10;;;;;;;4.47;1.92;;;;;;;9.14;64.91;102706.25;4973574;28;122956;-35
2022/04/27 06:46:35;;;;;;;3.08;1.60;;;;;;;9.20;65.61;102710.66;4974743;28;96834;-35
2022/04/27 06:49:01;;;;;;;2.40;1.42;;;;;;;9.30;65.09;102714.88;4973062;28;129450;-35
2022/04/27 06:51:26;;;;;;;2.75;1.35;;;;;;;9.41;63.89;102720.00;4972413;28;126552;-35
2022/04/27 06:53:52;;;;;;;5.97;1.63;;;;;;;9.36;64.19;102717.41;4973819;28;121516;-35
2022/04/27 06:56:17;;;;;;;4.45;1.52;;;;;;;9.39;63.92;102713.75;4975049;28;97158;-35
2022/04/27 06:58:43;;;;;;;2.67;1.30;;;;;;;9.39;63.79;102710.13;4974603;28;97870;-35
2022/04/27 07:01:08;;;;;;;3.40;1.38;;;;;;;9.49;63.96;102728.81;4974801;28;97832;-35
2022/04/27 07:03:36;;;;;;;1.63;1.10;;;;;;;9.55;63.76;102733.16;4974896;28;96500;-35
2022/04/27 07:06:01;;;;;;;6.82;0.77;;;;;;;9.56;63.54;102732.25;4973424;28;96956;-35
2022/04/27 07:08:28;;;;;;;2.47;1.25;;;;;;;9.61;63.35;102722.19;4973871;28;97393;-35
2022/04/27 07:10:53;;;;;;;1.42;0.77;;;;;;;9.77;63.08;102738.84;4972427;28;101220;-35
2022/04/27 07:13:18;;;;;;;4.78;1.55;;;;;;;9.82;63.06;102744.13;4973680;28;121877;-35
2022/04/27 07:15:44;;;;;;;2.60;1.73;;;;;;;9.83;62.70;102735.09;4974730;28;96710;-35
2022/04/27 07:18:10;;;;;;;3.80;1.15;;;;;;;9.88;62.67;102743.97;4974262;28;97727;-35
2022/04/27 07:20:35;;;;;;;3.28;1.50;;;;;;;9.89;63.45;102749.38;4974191;28;99283;-35
2022/04/27 07:23:00;;;;;;;6.63;1.35;;;;;;;9.93;62.98;102758.28;4974611;28;96564;-35
2022/04/27 07:25:25;;;;;;;2.67;1.60;;;;;;;9.94;63.31;102741.13;4973781;28;113494;-34
2022/04/27 07:27:51;;;;;;;7.97;1.52;;;;;;;10.00;62.14;102747.22;4974337;28;97948;-35
2022/04/27 07:30:16;;;;;;;4.40;1.42;;;;;;;9.99;62.88;102752.69;4973978;28;98873;-35
2022/04/27 07:32:42;;;;;;;3.45;1.65;;;;;;;10.10;62.59;102750.53;4973584;28;98320;-35
2022/04/27 07:35:07;;;;;;;3.63;1.38;;;;;;;10.23;62.27;102755.63;4973928;28;96843;-35
2022/04/27 07:37:42;;;;;;;2.22;1.13;;;;;;;10.27;62.04;102762.72;4974100;28;97911;-34
2022/04/27 07:40:10;;;;;;;2.35;1.17;;;;;;;10.26;61.86;102752.81;4973058;28;127247;-35
2022/04/27 07:42:35;;;;;;;2.00;1.10;;;;;;;10.38;61.66;102763.31;4972575;28;96670;-35
2022/04/27 07:45:00;;;;;;;1.55;0.95;;;;;;;10.37;61.43;102761.56;4973665;28;96817;-35
2022/04/27 07:47:26;;;;;;;5.32;1.60;;;;;;;10.54;61.16;102770.06;4972417;28;126543;-35
2022/04/27 07:49:51;;;;;;;2.22;1.08;;;;;;;10.63;60.53;102767.06;4972812;28;99123;-35
2022/04/27 07:52:16;;;;;;;0.82;0.73;;;;;;;10.81;59.57;102762.00;4973578;28;99329;-35
2022/04/27 07:54:43;;;;;;;1.85;1.00;;;;;;;11.00;59.19;102762.28;4974112;28;96793;-35
2022/04/27 07:57:08;;;;;;;0.70;0.63;;;;;;;11.21;57.80;102768.84;4971762;28;100811;-35
2022/04/27 07:59:34;;;;;;;2.08;0.40;;;;;;;11.14;55.23;102770.88;4973451;28;102541;-35
2022/04/27 08:01:59;;;;;;;0.38;0.38;;;;;;;11.14;56.81;102767.28;4973847;28;96639;-35
2022/04/27 08:04:24;;;;;;;0.80;0.47;;;;;;;11.12;56.89;102758.28;4973072;28;113296;-35
2022/04/27 08:06:50;;;;;;;1.13;0.63;;;;;;;11.14;56.64;102775.41;4972848;28;99455;-34
2022/04/27 08:09:16;;;;;;;3.40;1.10;;;;;;;11.10;57.22;102774.59;4973641;28;98404;-34
2022/04/27 08:11:42;;;;;;;1.60;1.00;;;;;;;11.03;56.92;102776.63;4972996;28;96716;-35
2022/04/27 08:14:07;;;;;;;1.13;0.85;;;;;;;10.98;57.72;102775.88;4973896;28;96796;-35
2022/04/27 08:16:33;;;;;;;2.20;0.77;;;;;;;10.92;57.24;102786.94;4973522;28;97883;-35
2022/04/27 08:18:58;;;;;;;0.80;0.70;;;;;;;10.86;56.93;102788.97;4971995;28;98389;-34
2022/04/27 08:21:27;;;;;;;1.05;0.60;;;;;;;10.78;57.24;102783.78;4971956;28;122572;-34
2022/04/27 08:23:52;;;;;;;1.00;0.80;;;;;;;10.77;57.50;102788.31;4973348;28;96892;-34
2022/04/27 08:26:18;;;;;;;1.27;0.77;;;;;;;10.74;58.23;102798.38;4972028;28;100805;-35
2022/04/27 08:28:45;;;;;;;0.88;0.57;;;;;;;10.67;57.04;102804.91;4973064;28;97887;-35
2022/04/27 08:31:13;;;;;;;0.70;0.52;;;;;;;10.57;57.71;102796.16;4971799;28;96590;-34
2022/04/27 08:33:38;;;;;;;1.30;0.88;;;;;;;10.55;57.96;102798.91;4971891;28;96826;-35
2022/04/27 08:36:04;;;;;;;3.00;0.93;;;;;;;10.55;57.39;102809.75;4972496;28;114480;-35
2022/04/27 08:38:30;;;;;;;2.03;0.70;;;;;;;10.53;57.54;102810.72;4971973;28;99000;-35
2022/04/27 08:40:57;;;;;;;1.52;0.77;;;;;;;10.50;58.29;102808.13;4973291;28;96508;-34
2022/04/27 08:43:23;;;;;;;1.00;0.70;;;;;;;10.45;57.77;102808.25;4971664;28;96907;-35
2022/04/27 08:45:48;;;;;;;2.47;0.93;;;;;;;10.39;58.04;102805.72;4972630;28;97486;-35
2022/04/27 08:48:17;;;;;;;2.22;0.90;;;;;;;10.41;57.46;102820.13;4971452;28;100795;-35
2022/04/27 08:50:44;;;;;;;2.53;0.77;;;;;;;10.37;58.40;102815.75;4973016;28;96494;-34
2022/04/27 08:53:09;;;;;;;1.15;0.88;;;;;;;10.38;58.12;102818.38;4971439;28;97614;-34
2022/04/27 08:55:36;;;;;;;1.90;0.77;;;;;;;10.43;57.91;102833.63;4972744;28;99371;-35
2022/04/27 08:58:09;;;;;;;1.25;0.98;;;;;;;10.32;57.65;102807.75;4971351;28;101111;-34
2022/04/27 09:00:35;;;;;;;1.48;1.08;;;;;;;10.35;57.89;102812.19;4971437;28;96575;-35
2022/04/27 09:03:32;;;;;;;2.40;0.80;;;;;;;10.49;57.91;102831.63;4971921;28;96786;-35
2022/04/27 09:06:02;;;;;;;1.05;0.82;;;;;;;10.52;57.88;102823.41;4972501;28;99232;-36
2022/04/27 09:08:41;;;;;;;4.00;1.02;;;;;;;10.57;57.57;102829.56;4971095;28;101727;-34
2022/04/27 09:11:34;;;;;;;1.75;0.75;;;;;;;10.56;57.42;102830.50;4970379;28;96673;-34
2022/04/27 09:14:01;;;;;;;1.52;0.95;;;;;;;10.56;57.57;102824.22;4972515;28;96891;-35
2022/04/27 09:20:46;;;;;;;1.77;1.10;;;;;;;10.66;57.13;102830.25;4971002;28;101033;-34
2022/04/27 09:22:04;;;;;;;1.65;0.90;;;;;;;10.70;56.97;102823.78;4972839;28;96522;-34
2022/04/27 09:24:47;;;;;;;1.77;1.00;;;;;;;10.69;56.40;102820.19;4971311;28;96838;-35
2022/04/27 09:27:17;;;;;;;1.88;1.00;;;;;;;10.77;55.37;102837.13;4971234;28;101518;-35
2022/04/27 09:29:42;;;;;;;1.35;0.80;;;;;;;10.82;56.32;102831.53;4971353;28;101186;-35
2022/04/27 09:32:14;;;;;;;4.00;1.40;;;;;;;10.81;55.92;102811.66;4970994;28;96629;-34
2022/04/27 09:34:45;;;;;;;0.50;0.50;;;;;;;10.99;55.92;102836.47;4971153;28;96700;-35
2022/04/27 09:37:16;;;;;;;3.28;1.27;;;;;;;11.07;55.12;102839.81;4970594;28;101050;-34
2022/04/27 09:39:43;;;;;;;1.17;0.83;;;;;;;11.12;55.66;102837.81;4972139;28;98933;-34
2022/04/27 09:42:10;;;;;;;1.55;0.77;;;;;;;11.21;55.27;102842.09;4971078;28;96751;-35
2022/04/27 09:44:37;;;;;;;1.95;1.25;;;;;;;11.29;54.54;102839.13;4971019;28;96860;-35
2022/04/27 09:47:04;;;;;;;1.38;0.85;;;;;;;11.36;55.40;102847.00;4970905;28;101275;-35
2022/04/27 09:49:36;;;;;;;1.27;0.82;;;;;;;11.42;54.67;102852.22;4970685;28;100703;-34
2022/04/27 09:52:03;;;;;;;1.10;0.80;;;;;;;11.45;54.81;102843.97;4972092;28;96493;-35
2022/04/27 09:54:31;;;;;;;2.08;1.30;;;;;;;11.47;55.14;102844.81;4971245;28;96845;-35
2022/04/27 09:57:02;;;;;;;2.35;1.42;;;;;;;11.48;53.57;102845.72;4970783;28;100993;-35
2022/04/27 09:59:30;;;;;;;2.70;1.23;;;;;;;11.48;54.06;102848.41;4970680;28;100712;-34
2022/04/27 10:01:59;;;;;;;1.08;0.80;;;;;;;11.51;54.17;102844.72;4970364;28;97115;-35
2022/04/27 10:04:29;;;;;;;1.55;1.13;;;;;;;11.44;54.13;102839.50;4970785;28;96789;-35
2022/04/27 10:07:00;;;;;;;2.72;1.00;;;;;;;11.60;54.66;102845.28;4970102;28;100875;-35
2022/04/27 10:09:27;;;;;;;6.13;1.50;;;;;;;11.69;54.01;102844.09;4972045;28;100938;-35
2022/04/27 10:11:55;;;;;;;3.55;1.23;;;;;;;11.73;54.06;102845.78;4973805;28;96821;-34
2022/04/27 10:14:21;;;;;;;2.53;1.10;;;;;;;11.78;54.08;102834.75;4974039;28;96901;-34
2022/04/27 10:16:57;;;;;;;1.83;1.05;;;;;;;11.87;53.87;102846.22;4975400;28;97939;-35
2022/04/27 10:19:23;;;;;;;0.75;0.70;;;;;;;11.96;53.43;102849.53;4974235;28;100884;-35
2022/04/27 10:21:56;;;;;;;1.10;0.65;;;;;;;12.04;53.56;102839.31;4973980;28;96606;-35
2022/04/27 10:24:34;;;;;;;1.88;1.02;;;;;;;12.15;52.58;102838.91;4975570;28;96603;-35
2022/04/27 10:27:23;;;;;;;1.75;0.98;;;;;;;12.10;53.35;102836.34;4974762;28;98175;-34
2022/04/27 10:30:02;;;;;;;4.45;1.27;;;;;;;12.25;53.30;102849.41;4975201;28;97365;-35
2022/04/27 10:32:48;;;;;;;2.35;0.85;;;;;;;12.24;52.08;102841.28;4973786;28;96751;-35
2022/04/27 10:35:19;;;;;;;1.95;1.33;;;;;;;12.37;52.03;102844.44;4974018;28;96736;-34
2022/04/27 10:38:00;;;;;;;1.58;1.08;;;;;;;12.35;51.90;102843.59;4973537;28;101427;-35
2022/04/27 10:40:25;;;;;;;1.48;1.05;;;;;;;12.35;51.67;102843.59;4973519;28;100764;-34
2022/04/27 10:42:50;;;;;;;1.98;1.23;;;;;;;12.29;52.95;102829.31;4975185;28;96578;-34
2022/04/27 10:45:22;;;;;;;2.53;1.17;;;;;;;12.43;51.61;102819.75;4975562;28;96776;-35
2022/04/27 10:47:47;;;;;;;1.25;0.98;;;;;;;12.50;52.01;102837.63;4973483;28;100093;-35
2022/04/27 10:50:13;;;;;;;3.97;1.58;;;;;;;12.59;51.93;102842.72;4974649;28;97855;-35
2022/04/27 10:52:43;;;;;;;1.58;1.05;;;;;;;12.63;51.35;102825.34;4974283;28;96576;-34
2022/04/27 10:55:35;;;;;;;3.90;1.48;;;;;;;12.79;51.31;102841.94;4973453;28;96820;-35
2022/04/27 10:58:18;;;;;;;2.07;1.30;;;;;;;12.79;50.07;102839.22;4973145;28;101029;-35
2022/04/27 11:00:58;;;;;;;2.17;1.33;;;;;;;12.89;51.17;102839.72;4972959;28;100696;-35
2022/04/27 11:03:32;;;;;;;1.90;1.35;;;;;;;12.95;50.74;102840.38;4974709;28;96709;-35
2022/04/27 11:06:03;;;;;;;2.60;1.63;;;;;;;12.90;51.04;102833.38;4974926;28;96547;-34
2022/04/27 11:08:56;;;;;;;2.63;1.70;;;;;;;12.98;50.50;102839.38;4940517;28;100965;-34
2022/04/27 11:11:26;;;;;;;2.33;1.40;;;;;;;13.11;50.16;102840.66;4974295;28;97798;-34
2022/04/27 11:13:59;;;;;;;2.55;1.48;;;;;;;13.14;50.12;102840.53;4973227;28;97293;-35
2022/04/27 11:16:24;;;;;;;2.53;1.10;;;;;;;13.22;50.83;102821.16;4973375;28;96726;-35
2022/04/27 11:19:02;;;;;;;1.95;1.33;;;;;;;13.28;49.04;102823.69;4974218;28;97473;-35
2022/04/27 11:21:29;;;;;;;1.92;1.33;;;;;;;13.45;50.56;102839.31;4973220;28;97770;-34
2022/04/27 11:23:55;;;;;;;2.17;1.33;;;;;;;13.50;48.76;102837.28;4972983;28;96623;-35
2022/04/27 11:26:20;;;;;;;6.00;1.33;;;;;;;13.55;49.78;102834.38;4974560;28;96759;-35
2022/04/27 11:28:46;;;;;;;3.10;1.50;;;;;;;13.51;48.89;102833.59;4974192;28;97401;-35
2022/04/27 11:31:13;;;;;;;1.98;1.25;;;;;;;13.57;50.13;102833.34;4972554;28;100971;-35
2022/04/27 11:33:42;;;;;;;3.25;1.35;;;;;;;13.55;49.08;102840.69;4974086;28;96684;-35
2022/04/27 11:36:21;;;;;;;4.10;1.67;;;;;;;13.60;49.35;102838.66;4972834;28;96802;-35
2022/04/27 11:38:47;;;;;;;1.15;0.80;;;;;;;13.62;48.69;102824.09;4974139;28;98116;-35
2022/04/27 11:41:20;;;;;;;2.00;1.05;;;;;;;13.67;48.08;102817.50;4972621;28;100366;-34
2022/04/27 11:43:50;;;;;;;1.83;1.17;;;;;;;13.81;49.30;102825.09;4972223;28;96904;-35